Time;durP1;ratioP1;P1;durP2;ratioP2;P2;SDS_P1;SDS_P2;PMS_P1;PMS_P2;Temp;Humidity;BMP_temperature;BMP_pressure;BME280_temperature;BME280_humidity;BME280_pressure;Samples;Min_cycle;Max_cycle;Signal;HPM_P1;HPM_P2
2023/10/17 07:32:00;;;;;;;10.68;4.47;;;;;;;12.38;57.39;100808.69;5111289;27;20055;-82
2023/10/17 07:34:33;;;;;;;8.98;4.68;;;;;;;12.68;56.11;100811.63;5114331;27;20046;-84
2023/10/17 07:37:12;;;;;;;10.98;5.47;;;;;;;12.94;56.65;100812.53;5109852;28;20508;-84
2023/10/17 07:39:39;;;;;;;10.18;5.82;;;;;;;12.53;56.30;100803.09;5121200;27;20035;-84
2023/10/17 07:42:14;;;;;;;14.90;7.57;;;;;;;12.21;57.03;100762.91;5108360;28;20036;-83
2023/10/17 07:44:41;;;;;;;19.25;9.45;;;;;;;12.70;55.99;100790.84;5108978;28;20472;-83
2023/10/17 07:47:19;;;;;;;11.15;5.03;;;;;;;12.42;56.25;100778.66;5109593;28;20054;-85
2023/10/17 07:49:47;;;;;;;6.65;3.85;;;;;;;12.33;56.87;100787.94;5125554;27;20085;-84
2023/10/17 07:52:16;;;;;;;12.13;5.00;;;;;;;12.77;56.01;100791.63;5111781;27;20031;-85
2023/10/17 07:54:55;;;;;;;8.43;3.90;;;;;;;12.64;56.03;100781.00;5118774;27;20373;-85
2023/10/17 07:57:23;;;;;;;;;;;;;;;12.88;55.53;100806.19;5110874;27;20450;-83
2023/10/17 07:59:57;;;;;;;8.90;4.78;;;;;;;13.15;55.12;100774.66;5112558;27;19961;-84
2023/10/17 08:02:23;;;;;;;10.93;4.57;;;;;;;13.70;53.37;100775.88;5107824;27;20106;-83
2023/10/17 08:04:53;;;;;;;6.05;4.10;;;;;;;14.25;52.50;100786.59;5120371;27;20023;-82
2023/10/17 08:07:22;;;;;;;8.32;4.28;;;;;;;14.30;51.23;100781.34;5110416;28;20020;-82
2023/10/17 08:09:50;;;;;;;7.72;4.10;;;;;;;14.40;51.93;100778.94;5127640;27;20037;-83
2023/10/17 08:12:22;;;;;;;7.78;4.43;;;;;;;14.01;51.12;100773.03;5124119;27;20484;-82
2023/10/17 08:15:18;;;;;;;8.13;3.70;;;;;;;13.91;52.22;100763.88;5117985;28;20027;-82
2023/10/17 08:17:44;;;;;;;8.55;3.95;;;;;;;13.77;52.28;100744.44;5112911;28;20059;-82
2023/10/17 08:20:45;;;;;;;7.47;3.33;;;;;;;13.72;51.71;100752.34;5124569;28;20031;-82
2023/10/17 08:22:55;;;;;;;7.47;3.80;;;;;;;14.00;51.17;100746.47;5113002;28;20031;-82
2023/10/17 08:25:30;;;;;;;6.45;3.80;;;;;;;14.20;50.73;100746.19;5120961;27;20027;-83
2023/10/17 08:27:56;;;;;;;7.00;3.53;;;;;;;13.89;51.47;100739.97;5116876;27;20053;-83
2023/10/17 08:30:27;;;;;;;7.10;3.80;;;;;;;14.44;50.65;100725.63;5128644;27;20124;-83
2023/10/17 08:35:37;;;;;;;6.03;3.08;;;;;;;14.17;50.00;100726.00;5126378;27;20035;-83
2023/10/17 08:38:03;;;;;;;5.20;2.85;;;;;;;14.27;50.92;100733.53;5117836;27;20027;-83
2023/10/17 08:40:39;;;;;;;8.77;3.22;;;;;;;14.20;50.53;100741.66;5112521;28;20027;-82
2023/10/17 08:43:17;;;;;;;6.65;2.60;;;;;;;14.57;50.25;100741.59;5113263;27;20044;-82
2023/10/17 08:45:46;;;;;;;9.00;3.00;;;;;;;14.88;49.50;100728.13;5104979;27;20031;-83
2023/10/17 08:48:11;;;;;;;4.60;2.05;;;;;;;14.81;49.17;100715.63;5111593;28;20039;-83
2023/10/17 08:50:38;;;;;;;4.20;1.90;;;;;;;14.99;48.00;100721.94;5109656;27;20176;-83
2023/10/17 08:53:08;;;;;;;12.73;1.90;;;;;;;15.04;48.65;100701.41;5112625;27;20023;-84
2023/10/17 08:55:34;;;;;;;3.85;1.70;;;;;;;15.20;47.92;100717.88;5112495;28;20031;-83
2023/10/17 08:57:59;;;;;;;4.07;1.60;;;;;;;15.08;48.19;100709.81;5115056;27;20439;-83
2023/10/17 09:00:49;;;;;;;4.03;1.40;;;;;;;15.51;46.86;100708.63;5115718;27;20119;-82
2023/10/17 09:03:35;;;;;;;5.93;2.17;;;;;;;15.50;46.33;100695.44;5113307;27;20495;-83
2023/10/17 09:06:28;;;;;;;10.55;5.88;;;;;;;15.93;45.69;100700.38;5109268;27;20054;-82
2023/10/17 09:11:33;;;;;;;13.60;4.90;;;;;;;15.77;45.60;100685.00;5115479;27;20527;-84
2023/10/17 09:14:24;;;;;;;10.32;3.55;;;;;;;15.61;45.64;100695.41;5118662;27;20055;-86
2023/10/17 09:17:10;;;;;;;6.50;2.10;;;;;;;15.64;46.04;100692.25;5114337;27;20452;-82
2023/10/17 09:19:56;;;;;;;4.93;2.13;;;;;;;15.98;45.24;100680.84;5121447;27;20031;-82
2023/10/17 09:22:22;;;;;;;5.75;1.50;;;;;;;16.26;45.18;100680.84;5115195;27;20114;-83
2023/10/17 09:24:50;;;;;;;4.25;1.58;;;;;;;16.38;44.03;100650.34;5120083;27;20110;-83
2023/10/17 09:27:18;;;;;;;5.57;2.30;;;;;;;16.58;43.65;100668.72;5113987;28;20023;-83
2023/10/17 09:29:51;;;;;;;5.25;2.13;;;;;;;16.25;43.53;100664.94;5117192;27;20106;-84
2023/10/17 09:32:33;;;;;;;6.63;2.50;;;;;;;16.64;43.17;100662.38;5113493;27;20052;-82
2023/10/17 09:35:10;;;;;;;5.75;2.85;;;;;;;16.44;42.95;100662.84;5123648;27;20122;-83
2023/10/17 09:37:37;;;;;;;4.47;2.25;;;;;;;16.50;43.35;100661.06;5112363;28;20031;-82
2023/10/17 09:40:11;;;;;;;4.72;1.95;;;;;;;16.06;43.36;100649.00;5116600;27;20031;-84
2023/10/17 09:42:40;;;;;;;6.43;2.13;;;;;;;16.40;44.71;100629.38;5121483;27;20667;-83
2023/10/17 09:45:09;;;;;;;8.25;1.83;;;;;;;16.21;43.10;100626.13;5123112;27;20031;-83
2023/10/17 09:47:39;;;;;;;5.05;1.60;;;;;;;16.27;43.76;100617.06;5103623;27;20031;-85
2023/10/17 09:50:08;;;;;;;5.53;1.60;;;;;;;16.41;43.27;100609.50;5114383;27;20066;-85
2023/10/17 09:52:34;;;;;;;5.13;1.50;;;;;;;16.64;42.20;100595.84;5119474;27;20039;-82
2023/10/17 09:55:05;;;;;;;5.57;2.08;;;;;;;16.90;42.32;100617.00;5124817;27;20030;-85
2023/10/17 09:57:33;;;;;;;5.32;1.50;;;;;;;16.57;42.49;100586.31;5106548;27;20107;-83
2023/10/17 10:00:05;;;;;;;3.70;1.25;;;;;;;16.49;43.14;100606.41;5108890;27;20019;-82
2023/10/17 10:02:35;;;;;;;3.97;1.10;;;;;;;16.51;43.37;100588.13;5115275;27;20027;-83
2023/10/17 10:05:19;;;;;;;6.60;1.38;;;;;;;16.78;42.03;100582.88;5111579;28;20489;-84
2023/10/17 10:07:44;;;;;;;4.00;1.20;;;;;;;17.06;42.11;100605.38;5112980;27;20409;-83
2023/10/17 10:10:30;;;;;;;5.68;1.45;;;;;;;16.48;42.59;100584.03;5129682;27;20464;-84
2023/10/17 10:13:01;;;;;;;4.35;1.50;;;;;;;16.41;42.86;100563.75;5113318;27;20023;-81
2023/10/17 10:15:52;;;;;;;5.80;1.60;;;;;;;17.03;42.08;100595.09;5112167;28;20023;-83
2023/10/17 10:18:36;;;;;;;2.25;1.10;;;;;;;16.85;42.61;100588.91;5090655;28;20081;-84
2023/10/17 10:21:03;;;;;;;4.25;1.10;;;;;;;16.99;42.44;100553.56;5107540;27;20032;-84
2023/10/17 10:23:34;;;;;;;3.20;1.17;;;;;;;17.31;42.47;100550.19;5111081;28;20118;-83
2023/10/17 10:26:14;;;;;;;4.78;1.20;;;;;;;17.18;42.18;100554.88;5111775;28;20120;-82
2023/10/17 10:28:41;;;;;;;4.78;1.15;;;;;;;16.61;42.82;100541.66;5116141;27;20060;-83
2023/10/17 10:31:33;;;;;;;5.13;1.20;;;;;;;16.69;42.97;100573.56;5124182;27;20076;-84
2023/10/17 10:33:58;;;;;;;2.10;0.98;;;;;;;16.96;43.78;100549.47;5107293;27;20032;-82
2023/10/17 10:36:25;;;;;;;2.42;1.15;;;;;;;16.81;42.57;100512.34;5119234;27;20042;-83
2023/10/17 10:38:53;;;;;;;2.13;1.10;;;;;;;16.94;42.68;100542.69;5110287;28;20506;-83
2023/10/17 10:41:19;;;;;;;3.67;1.08;;;;;;;16.69;43.10;100533.16;5111657;27;20036;-84
2023/10/17 10:43:46;;;;;;;7.75;1.42;;;;;;;17.05;43.02;100512.13;5109265;28;20028;-83
2023/10/17 10:46:14;;;;;;;4.37;1.17;;;;;;;16.87;42.40;100489.81;5123956;27;20077;-83
2023/10/17 10:48:53;;;;;;;5.75;1.67;;;;;;;17.02;42.21;100523.41;5130524;27;20027;-82
2023/10/17 10:51:24;;;;;;;9.45;1.63;;;;;;;17.26;42.97;100515.88;5121379;27;20027;-83
2023/10/17 10:53:57;;;;;;;5.53;1.60;;;;;;;17.16;41.33;100492.34;5122021;27;20039;-85
2023/10/17 10:56:26;;;;;;;3.47;1.88;;;;;;;17.25;41.79;100512.38;5117469;27;20108;-84
2023/10/17 10:58:55;;;;;;;10.02;2.55;;;;;;;17.53;41.48;100510.53;5126921;27;20415;-84
2023/10/17 11:01:22;;;;;;;7.20;2.20;;;;;;;17.56;40.96;100491.13;5116078;27;20030;-84
2023/10/17 11:03:49;;;;;;;5.33;1.90;;;;;;;17.42;40.98;100484.50;5120329;27;20034;-83
2023/10/17 11:06:19;;;;;;;4.65;1.95;;;;;;;17.43;40.95;100486.16;5111345;28;20027;-83
2023/10/17 11:08:46;;;;;;;5.60;1.80;;;;;;;17.83;40.39;100501.13;5129553;27;20019;-82
2023/10/17 11:11:18;;;;;;;4.10;1.45;;;;;;;17.71;40.61;100481.56;5114008;27;20114;-87
2023/10/17 11:13:46;;;;;;;8.68;2.03;;;;;;;17.55;41.08;100494.06;5113432;27;20152;-83
2023/10/17 11:16:12;;;;;;;;;;;;;;;17.56;40.77;100491.13;5110374;28;20027;-83
2023/10/17 11:18:39;;;;;;;8.50;1.80;;;;;;;17.38;41.54;100469.91;5129597;27;19911;-83
2023/10/17 11:21:08;;;;;;;3.50;1.53;;;;;;;17.37;41.36;100493.38;5111044;27;20055;-84
2023/10/17 11:23:37;;;;;;;4.63;1.58;;;;;;;17.59;41.05;100484.41;5124102;27;20076;-83
2023/10/17 11:26:07;;;;;;;7.13;3.03;;;;;;;17.53;41.03;100491.66;5116551;27;20035;-84
2023/10/17 11:28:33;;;;;;;5.60;1.90;;;;;;;17.40;42.08;100481.25;5122613;27;20055;-83
2023/10/17 11:31:02;;;;;;;2.83;1.40;;;;;;;17.76;40.48;100468.94;5109134;28;20127;-84
2023/10/17 11:33:47;;;;;;;5.53;1.52;;;;;;;17.88;41.60;100463.41;5111135;27;20510;-83
2023/10/17 11:36:15;;;;;;;4.18;1.85;;;;;;;17.27;41.48;100467.13;5112027;27;20027;-83
2023/10/17 11:38:43;;;;;;;6.22;1.70;;;;;;;17.42;40.92;100461.06;5109229;28;20028;-84
2023/10/17 11:41:08;;;;;;;5.20;1.33;;;;;;;17.47;40.99;100476.50;5108791;28;20027;-83
2023/10/17 11:43:35;;;;;;;6.63;1.60;;;;;;;17.44;41.08;100471.59;5109773;28;20464;-83
2023/10/17 11:46:03;;;;;;;6.95;2.10;;;;;;;17.43;41.66;100481.56;5114726;27;20055;-83
2023/10/17 11:48:36;;;;;;;4.10;1.70;;;;;;;17.41;41.28;100461.34;5109300;28;20031;-84
2023/10/17 11:51:12;;;;;;;3.25;1.70;;;;;;;17.49;41.38;100452.78;5108990;28;20023;-84
2023/10/17 11:54:07;;;;;;;4.22;1.50;;;;;;;17.43;41.16;100460.00;5109968;27;20034;-84
2023/10/17 11:56:33;;;;;;;6.38;1.70;;;;;;;17.10;41.46;100420.59;5097729;28;20413;-84
2023/10/17 11:59:01;;;;;;;7.05;1.85;;;;;;;16.86;42.28;100414.66;5104435;28;20051;-86
2023/10/17 12:01:27;;;;;;;5.50;1.42;;;;;;;17.01;42.37;100436.38;5110595;27;20035;-84
2023/10/17 12:03:56;;;;;;;4.53;1.73;;;;;;;17.45;42.04;100446.28;5110935;27;20074;-83
2023/10/17 12:06:26;;;;;;;2.10;1.20;;;;;;;17.39;41.91;100448.09;5115437;27;20031;-85
2023/10/17 12:08:51;;;;;;;5.68;1.60;;;;;;;17.47;41.93;100438.75;5108974;27;20111;-81
2023/10/17 12:11:17;;;;;;;6.97;2.90;;;;;;;17.15;42.36;100409.84;5108653;28;20115;-85
2023/10/17 12:13:43;;;;;;;29.38;11.50;;;;;;;17.25;42.42;100426.13;5109308;28;20086;-83
2023/10/17 12:16:08;;;;;;;8.15;1.60;;;;;;;16.92;42.07;100413.66;5111316;27;20031;-83
2023/10/17 12:18:35;;;;;;;5.57;1.40;;;;;;;17.10;42.86;100423.28;5110307;28;20023;-84
2023/10/17 12:21:01;;;;;;;5.40;1.42;;;;;;;17.47;41.67;100430.66;5110290;28;20102;-83
2023/10/17 12:23:30;;;;;;;4.25;1.52;;;;;;;17.59;41.83;100419.69;5109979;28;20477;-84
2023/10/17 12:25:58;;;;;;;4.45;1.40;;;;;;;17.46;41.31;100437.91;5124025;28;20026;-84
2023/10/17 12:28:24;;;;;;;5.28;1.90;;;;;;;17.46;41.63;100437.09;5109652;28;20740;-83
2023/10/17 12:30:49;;;;;;;2.22;1.08;;;;;;;17.47;41.56;100422.56;5120412;28;20479;-83
2023/10/17 12:33:18;;;;;;;4.88;1.40;;;;;;;17.45;41.26;100416.63;5117411;28;20043;-83
2023/10/17 12:35:46;;;;;;;4.35;1.52;;;;;;;17.52;41.35;100408.31;5109907;28;20027;-83
2023/10/17 12:38:14;;;;;;;4.25;1.40;;;;;;;17.40;41.64;100414.66;5114918;28;20038;-84
2023/10/17 12:40:43;;;;;;;3.63;1.20;;;;;;;17.55;41.02;100416.72;5123111;28;20107;-87
2023/10/17 12:43:11;;;;;;;3.90;1.25;;;;;;;17.53;40.89;100410.75;5115341;28;20572;-83
2023/10/17 12:45:38;;;;;;;6.97;1.50;;;;;;;17.77;40.89;100411.19;5115697;28;20501;-83
2023/10/17 12:48:05;;;;;;;6.53;1.60;;;;;;;17.62;41.03;100408.41;5118918;28;20055;-85
2023/10/17 12:50:33;;;;;;;4.80;1.37;;;;;;;17.59;41.32;100393.56;5129637;28;20023;-86
2023/10/17 12:52:58;;;;;;;3.08;1.35;;;;;;;17.80;40.84;100383.72;5123079;28;20265;-83
2023/10/17 12:55:27;;;;;;;7.53;1.35;;;;;;;17.47;41.46;100385.63;5125963;27;20110;-82
2023/10/17 12:57:52;;;;;;;4.78;1.50;;;;;;;17.53;41.06;100382.97;5118537;27;20032;-83
2023/10/17 13:00:25;;;;;;;2.72;1.25;;;;;;;17.45;41.87;100393.16;5131078;28;20123;-86
2023/10/17 13:02:52;;;;;;;3.15;1.50;;;;;;;17.60;41.34;100387.06;5123853;28;20027;-85
2023/10/17 13:05:20;;;;;;;4.87;1.70;;;;;;;17.37;41.10;100365.88;5131082;28;20050;-86
2023/10/17 13:07:45;;;;;;;3.75;1.55;;;;;;;17.31;41.65;100393.84;5139703;28;20110;-87
2023/10/17 13:10:12;;;;;;;5.40;1.60;;;;;;;17.31;41.27;100393.84;5144102;27;20115;-86
2023/10/17 13:12:39;;;;;;;4.57;1.60;;;;;;;17.09;41.73;100396.59;5128750;27;20027;-84
2023/10/17 13:15:08;;;;;;;5.93;1.60;;;;;;;16.90;42.19;100371.84;5144663;27;20028;-84
2023/10/17 13:17:33;;;;;;;4.93;1.55;;;;;;;16.83;41.99;100375.56;5141010;27;20030;-84
2023/10/17 13:20:06;;;;;;;5.85;1.88;;;;;;;17.05;42.41;100382.81;5137180;27;20027;-86
2023/10/17 13:22:36;;;;;;;7.28;1.67;;;;;;;16.97;41.69;100380.56;5123540;27;20028;-84
2023/10/17 13:25:02;;;;;;;7.30;1.50;;;;;;;17.07;41.75;100396.84;5135758;27;20080;-87
2023/10/17 13:27:28;;;;;;;10.10;2.00;;;;;;;17.01;42.15;100389.75;5133726;27;20023;-87
2023/10/17 13:29:54;;;;;;;5.20;1.23;;;;;;;17.00;41.90;100391.66;5127175;27;20027;-84
2023/10/17 13:32:19;;;;;;;10.52;1.70;;;;;;;17.02;41.92;100383.28;5134322;27;20492;-84
2023/10/17 13:34:46;;;;;;;6.18;1.70;;;;;;;17.00;42.13;100399.72;5116198;27;20035;-84
2023/10/17 13:37:12;;;;;;;2.65;1.30;;;;;;;16.77;42.13;100387.31;5115052;27;20082;-84
2023/10/17 13:39:37;;;;;;;5.78;1.50;;;;;;;16.72;42.05;100389.97;5120995;27;20052;-84
2023/10/17 13:42:03;;;;;;;5.50;1.48;;;;;;;16.76;41.91;100393.78;5122409;27;20122;-83
2023/10/17 13:44:29;;;;;;;4.00;1.20;;;;;;;16.56;42.19;100369.31;5123848;27;20031;-83
2023/10/17 13:46:55;;;;;;;3.40;1.40;;;;;;;16.76;42.02;100391.06;5116351;27;20032;-83
2023/10/17 13:49:21;;;;;;;4.97;1.52;;;;;;;16.79;42.25;100382.47;5116969;27;20045;-83
2023/10/17 13:51:47;;;;;;;8.07;1.80;;;;;;;16.76;42.25;100385.69;5120691;27;20031;-85
2023/10/17 13:54:14;;;;;;;18.45;7.78;;;;;;;16.92;41.67;100385.88;5117015;27;20474;-84
2023/10/17 13:56:41;;;;;;;16.08;8.75;;;;;;;16.93;41.78;100390.22;5102919;28;20059;-83
2023/10/17 13:59:13;;;;;;;4.47;1.33;;;;;;;16.80;41.80;100376.03;5101213;27;20056;-83
2023/10/17 14:01:41;;;;;;;7.38;1.98;;;;;;;16.37;42.25;100361.53;5099565;27;20096;-84
2023/10/17 14:04:09;;;;;;;12.23;4.95;;;;;;;16.43;41.95;100378.56;5122035;27;20049;-84
2023/10/17 14:06:39;;;;;;;8.38;2.10;;;;;;;16.76;42.08;100379.50;5111101;27;20056;-86
2023/10/17 14:09:14;;;;;;;8.40;2.13;;;;;;;16.76;41.77;100388.38;5111283;27;20023;-86
2023/10/17 14:11:46;;;;;;;35.85;4.07;;;;;;;16.56;42.05;100385.47;5116544;27;20031;-84
2023/10/17 14:14:13;;;;;;;7.07;2.03;;;;;;;16.56;42.45;100386.25;5132143;27;20023;-84
2023/10/17 14:16:42;;;;;;;9.80;2.22;;;;;;;16.74;41.44;100360.09;5123656;27;20032;-83
2023/10/17 14:27:21;;;;;;;12.15;5.40;;;;;;;16.63;42.01;100362.66;5106543;28;20036;-84
2023/10/17 14:29:47;;;;;;;60.40;7.53;;;;;;;16.43;42.31;100357.03;5125101;27;20031;-84
2023/10/17 14:32:17;;;;;;;163.82;18.70;;;;;;;16.58;42.57;100365.28;5118768;27;20039;-84
2023/10/17 14:34:43;;;;;;;10.27;5.57;;;;;;;16.52;42.33;100360.09;5129461;27;20031;-85
2023/10/17 14:37:10;;;;;;;9.95;4.40;;;;;;;16.56;42.58;100359.34;5122150;27;20167;-84
2023/10/17 14:39:36;;;;;;;19.20;5.95;;;;;;;16.53;42.79;100359.84;5114440;27;20032;-83
2023/10/17 14:42:03;;;;;;;7.13;2.47;;;;;;;16.39;42.80;100340.56;5111986;28;20027;-84
2023/10/17 14:44:29;;;;;;;12.57;2.30;;;;;;;16.74;42.61;100355.50;5114436;27;20046;-84
2023/10/17 14:46:55;;;;;;;11.30;3.17;;;;;;;16.50;42.27;100317.28;5129924;27;20382;-84
2023/10/17 14:49:21;;;;;;;4.65;1.52;;;;;;;16.42;42.86;100331.16;5122804;27;20510;-85
2023/10/17 14:51:49;;;;;;;10.50;4.32;;;;;;;16.38;43.04;100330.84;5129205;27;20033;-85
2023/10/17 14:54:15;;;;;;;27.65;13.15;;;;;;;16.47;42.85;100345.50;5095534;28;20038;-84
2023/10/17 14:56:40;;;;;;;10.48;3.95;;;;;;;16.25;43.02;100315.91;5113313;27;20041;-84
2023/10/17 14:59:08;;;;;;;11.73;6.38;;;;;;;16.34;42.82;100334.31;5120330;27;20057;-87
2023/10/17 15:01:35;;;;;;;8.93;5.10;;;;;;;16.24;42.82;100337.66;5131314;27;20026;-84
2023/10/17 15:04:00;;;;;;;7.88;3.70;;;;;;;16.21;42.90;100314.78;5113774;27;20044;-84
2023/10/17 15:06:26;;;;;;;10.25;3.20;;;;;;;16.26;43.14;100324.78;5126340;27;20035;-84
2023/10/17 15:08:52;;;;;;;8.20;2.50;;;;;;;16.19;42.21;100311.53;5115903;27;20027;-84
2023/10/17 15:11:20;;;;;;;9.50;3.10;;;;;;;16.18;42.37;100335.97;5121711;27;20141;-85
2023/10/17 15:13:46;;;;;;;12.27;4.43;;;;;;;16.12;42.48;100332.44;5118180;27;20092;-84
2023/10/17 15:16:19;;;;;;;15.55;4.40;;;;;;;16.25;42.46;100336.63;5110303;28;20036;-84
2023/10/17 15:18:45;;;;;;;23.10;5.38;;;;;;;16.26;42.84;100332.84;5110223;28;20027;-85
2023/10/17 15:21:15;;;;;;;10.80;3.33;;;;;;;16.12;42.62;100307.38;5106708;28;20413;-84
2023/10/17 15:23:41;;;;;;;9.90;2.88;;;;;;;16.18;42.48;100317.16;5110176;28;20019;-84
2023/10/17 15:26:11;;;;;;;12.60;2.90;;;;;;;16.26;42.28;100317.53;5127206;27;20034;-84
2023/10/17 15:28:38;;;;;;;4.60;2.20;;;;;;;16.21;42.24;100324.72;5113766;27;20493;-83
2023/10/17 15:31:09;;;;;;;5.60;2.58;;;;;;;16.07;42.73;100314.31;5112568;27;20092;-84
2023/10/17 15:33:36;;;;;;;9.15;2.50;;;;;;;15.93;42.52;100312.25;5110506;27;20055;-86
2023/10/17 15:36:05;;;;;;;15.33;4.97;;;;;;;15.90;42.84;100313.56;5108523;28;20032;-84
2023/10/17 15:38:32;;;;;;;11.55;3.50;;;;;;;15.94;43.19;100314.69;5106132;28;20513;-85
2023/10/17 15:40:59;;;;;;;6.75;3.13;;;;;;;15.92;43.16;100316.00;5112405;27;20023;-84
2023/10/17 15:43:24;;;;;;;9.63;4.15;;;;;;;15.90;43.22;100316.25;5106371;28;20016;-85
2023/10/17 15:45:51;;;;;;;10.65;5.75;;;;;;;15.90;42.88;100324.31;5109306;27;20536;-84
2023/10/17 15:48:23;;;;;;;9.55;4.97;;;;;;;15.87;43.33;100316.75;5114423;27;20221;-84
2023/10/17 15:50:49;;;;;;;8.70;4.47;;;;;;;16.05;43.18;100315.63;5105553;27;20091;-85
2023/10/17 15:53:14;;;;;;;9.10;4.70;;;;;;;15.81;43.38;100318.56;5126061;27;20028;-83
2023/10/17 15:55:40;;;;;;;11.27;4.03;;;;;;;15.96;43.58;100323.34;5118501;27;20496;-84
2023/10/17 15:58:06;;;;;;;15.57;3.35;;;;;;;15.93;42.98;100313.06;5120670;27;20546;-83
2023/10/17 16:00:31;;;;;;;11.63;3.63;;;;;;;16.06;43.01;100345.00;5113529;27;20122;-84
2023/10/17 16:02:58;;;;;;;8.38;3.63;;;;;;;16.02;43.20;100329.59;5109677;28;20439;-84
2023/10/17 16:05:23;;;;;;;11.57;3.55;;;;;;;16.01;43.17;100346.78;5112354;27;20052;-84
2023/10/17 16:07:49;;;;;;;9.93;3.55;;;;;;;16.13;42.95;100344.81;5124170;27;20104;-83
2023/10/17 16:10:16;;;;;;;11.10;3.97;;;;;;;16.11;43.02;100336.16;5113286;27;20186;-84
2023/10/17 16:12:43;;;;;;;10.60;3.78;;;;;;;15.88;43.09;100326.44;5108402;28;20031;-85
2023/10/17 16:15:09;;;;;;;7.97;3.42;;;;;;;15.76;43.74;100323.03;5109806;28;20028;-85
2023/10/17 16:17:35;;;;;;;10.25;4.47;;;;;;;15.85;43.63;100321.56;5126117;28;20050;-86
2023/10/17 16:20:06;;;;;;;14.38;5.00;;;;;;;15.83;44.43;100339.81;5107931;28;20043;-85
2023/10/17 16:22:35;;;;;;;10.93;4.75;;;;;;;15.78;44.28;100347.81;5108271;28;20046;-85
2023/10/17 16:25:04;;;;;;;13.45;5.90;;;;;;;15.83;43.63;100351.41;5109279;28;20034;-84
2023/10/17 16:27:34;;;;;;;16.50;5.88;;;;;;;15.83;43.91;100334.44;5119619;28;20034;-85
2023/10/17 16:30:00;;;;;;;39.22;7.53;;;;;;;15.74;43.24;100330.53;5123125;28;20035;-85
2023/10/17 16:32:27;;;;;;;8.90;3.25;;;;;;;15.68;42.97;100343.88;5114087;28;20121;-85
2023/10/17 16:34:54;;;;;;;7.88;2.53;;;;;;;15.53;43.40;100346.34;5107582;28;20057;-84
2023/10/17 16:37:20;;;;;;;6.43;2.30;;;;;;;15.49;43.55;100321.00;5108222;28;20182;-84
2023/10/17 16:39:45;;;;;;;12.75;3.35;;;;;;;15.64;43.47;100329.28;5109654;28;20027;-85
2023/10/17 16:42:11;;;;;;;10.98;2.95;;;;;;;15.71;43.47;100320.25;5119669;27;20109;-85
2023/10/17 16:44:36;;;;;;;5.95;2.08;;;;;;;15.73;43.56;100339.66;5110134;28;20040;-83
2023/10/17 16:47:03;;;;;;;6.57;2.30;;;;;;;15.88;43.29;100337.22;5111474;28;20032;-86
2023/10/17 16:49:30;;;;;;;8.13;2.30;;;;;;;15.67;43.40;100328.81;5112120;27;20020;-84
2023/10/17 16:51:55;;;;;;;6.40;2.30;;;;;;;15.80;43.13;100329.56;5115577;27;20045;-85
2023/10/17 16:54:22;;;;;;;6.90;2.35;;;;;;;15.64;43.71;100297.03;5111816;28;20558;-84
2023/10/17 16:56:48;;;;;;;9.48;2.70;;;;;;;15.66;44.29;100321.78;5116870;27;20032;-85
2023/10/17 16:59:13;;;;;;;5.43;2.40;;;;;;;15.72;44.99;100327.25;5115321;27;20031;-84
2023/10/17 17:01:39;;;;;;;4.40;1.80;;;;;;;15.88;44.52;100341.78;5114493;27;20181;-84
2023/10/17 17:04:06;;;;;;;9.38;2.30;;;;;;;15.92;43.83;100349.09;5118436;27;20020;-84
2023/10/17 17:06:32;;;;;;;6.20;2.00;;;;;;;15.54;44.00;100342.56;5129984;27;20130;-84
2023/10/17 17:08:58;;;;;;;7.53;2.20;;;;;;;15.74;43.40;100346.69;5132610;27;20360;-83
2023/10/17 17:11:25;;;;;;;6.75;2.40;;;;;;;15.82;43.75;100348.94;5126812;27;20024;-84
2023/10/17 17:13:51;;;;;;;8.35;2.45;;;;;;;15.56;44.48;100345.81;5130680;27;20084;-83
2023/10/17 17:16:16;;;;;;;8.10;2.70;;;;;;;15.48;44.39;100338.19;5129167;27;20027;-83
2023/10/17 17:18:42;;;;;;;11.38;5.35;;;;;;;15.80;44.47;100359.13;5114836;28;20437;-82
2023/10/17 17:21:08;;;;;;;11.88;7.35;;;;;;;15.63;45.12;100348.34;5114036;28;20027;-83
2023/10/17 17:23:34;;;;;;;14.55;8.38;;;;;;;15.45;45.48;100325.25;5114138;28;20023;-82
2023/10/17 17:26:00;;;;;;;16.67;7.82;;;;;;;15.54;46.20;100315.69;5112297;28;20039;-83
2023/10/17 17:28:25;;;;;;;15.80;9.32;;;;;;;15.64;46.01;100325.78;5109396;27;20127;-83
2023/10/17 17:30:51;;;;;;;13.82;10.00;;;;;;;15.32;47.35;100322.88;5121489;27;20603;-85
2023/10/17 17:33:16;;;;;;;16.58;11.15;;;;;;;15.50;47.69;100356.75;5111316;28;20044;-83
2023/10/17 17:35:42;;;;;;;21.17;7.07;;;;;;;15.30;47.77;100349.16;5113351;28;20031;-86
2023/10/17 17:38:08;;;;;;;14.32;6.43;;;;;;;15.24;47.99;100337.50;5116308;27;20031;-84
2023/10/17 17:40:35;;;;;;;14.55;6.47;;;;;;;15.32;48.61;100349.72;5113160;27;20440;-83
2023/10/17 17:43:01;;;;;;;16.50;8.33;;;;;;;15.23;48.74;100347.44;5126619;27;20556;-83
2023/10/17 17:45:26;;;;;;;18.42;9.13;;;;;;;14.90;51.09;100345.53;5113650;28;20024;-83
2023/10/17 17:47:53;;;;;;;13.55;8.15;;;;;;;15.14;50.48;100332.81;5113073;28;20023;-84
2023/10/17 17:50:18;;;;;;;10.50;5.38;;;;;;;15.27;48.84;100331.66;5114489;28;20107;-83
2023/10/17 17:52:44;;;;;;;12.55;5.55;;;;;;;14.93;50.78;100333.47;5132063;27;20031;-83
2023/10/17 17:55:09;;;;;;;18.95;5.45;;;;;;;15.02;50.12;100346.28;5127801;27;20431;-82
2023/10/17 17:57:37;;;;;;;10.77;5.00;;;;;;;14.96;50.88;100360.69;5117124;27;20028;-83
2023/10/17 18:00:03;;;;;;;12.05;5.70;;;;;;;14.71;51.60;100331.50;5115535;27;20055;-83
2023/10/17 18:02:29;;;;;;;7.80;4.05;;;;;;;14.68;51.87;100334.63;5113404;28;20442;-83
2023/10/17 18:04:54;;;;;;;10.10;3.85;;;;;;;14.84;51.48;100360.72;5115072;27;20047;-82
2023/10/17 18:07:20;;;;;;;9.05;3.97;;;;;;;14.84;51.67;100360.72;5130875;27;20089;-83
2023/10/17 18:09:47;;;;;;;14.32;5.15;;;;;;;14.83;51.61;100345.69;5126754;27;20122;-82
2023/10/17 18:12:14;;;;;;;7.32;2.83;;;;;;;14.86;52.90;100360.50;5112716;28;20024;-83
2023/10/17 18:14:41;;;;;;;10.30;4.20;;;;;;;14.16;57.53;100350.72;5113310;28;20023;-83
2023/10/17 18:17:06;;;;;;;8.80;3.70;;;;;;;14.11;57.18;100362.16;5114260;28;20038;-83
2023/10/17 18:19:32;;;;;;;10.48;3.78;;;;;;;14.36;55.71;100353.81;5128495;27;20032;-83
2023/10/17 18:21:57;;;;;;;10.13;3.97;;;;;;;14.41;55.59;100364.69;5115556;27;20487;-83
2023/10/17 18:24:23;;;;;;;11.60;4.13;;;;;;;14.24;56.48;100347.66;5118856;27;20039;-83
2023/10/17 18:26:48;;;;;;;11.45;3.88;;;;;;;14.25;57.90;100376.13;5113353;27;20030;-82
2023/10/17 18:29:14;;;;;;;9.48;4.10;;;;;;;14.18;58.05;100383.47;5128392;27;20042;-84
2023/10/17 18:31:41;;;;;;;14.73;4.28;;;;;;;14.05;59.03;100369.25;5111612;27;20103;-83
2023/10/17 18:34:06;;;;;;;15.63;4.78;;;;;;;14.07;59.12;100372.53;5102206;28;20027;-83
2023/10/17 18:36:33;;;;;;;13.38;4.35;;;;;;;14.21;58.81;100391.88;5109350;28;20106;-83
2023/10/17 18:39:02;;;;;;;15.93;4.40;;;;;;;14.07;59.27;100383.25;5117016;27;20087;-84
2023/10/17 18:41:29;;;;;;;14.52;4.50;;;;;;;14.03;60.33;100387.44;5113974;27;20058;-85
2023/10/17 18:43:54;;;;;;;12.90;4.97;;;;;;;13.82;61.58;100374.66;5113906;27;20028;-84
2023/10/17 18:46:20;;;;;;;9.85;4.82;;;;;;;13.70;61.62;100368.47;5115387;27;20038;-83
2023/10/17 18:48:45;;;;;;;11.13;4.75;;;;;;;13.90;62.04;100393.06;5109496;27;20042;-82
2023/10/17 18:51:11;;;;;;;8.88;4.70;;;;;;;13.81;62.92;100373.00;5117983;27;20518;-84
2023/10/17 18:53:37;;;;;;;12.68;5.10;;;;;;;13.84;64.15;100388.63;5109118;27;20024;-83
2023/10/17 18:56:07;;;;;;;13.40;5.10;;;;;;;13.74;64.08;100361.59;5113233;27;20039;-85
2023/10/17 18:58:39;;;;;;;15.10;5.10;;;;;;;13.83;65.20;100401.22;5110788;28;20373;-84
2023/10/17 19:01:06;;;;;;;14.73;4.63;;;;;;;13.64;64.81;100365.66;5112549;27;20476;-85
2023/10/17 19:03:32;;;;;;;10.63;4.88;;;;;;;13.78;65.93;100376.16;5114489;27;20028;-84
2023/10/17 19:06:00;;;;;;;16.58;5.30;;;;;;;13.86;65.68;100394.56;5128521;27;20032;-84
2023/10/17 19:08:26;;;;;;;17.07;5.60;;;;;;;13.72;66.41;100374.41;5114346;27;20019;-84
2023/10/17 19:10:51;;;;;;;11.57;5.80;;;;;;;13.54;67.95;100383.34;5122458;27;20265;-84
2023/10/17 19:13:17;;;;;;;16.75;6.82;;;;;;;13.45;68.38;100397.06;5119035;27;20152;-84